Time;durP1;ratioP1;P1;durP2;ratioP2;P2;SDS_P1;SDS_P2;PMS_P1;PMS_P2;Temp;Humidity;BMP_temperature;BMP_pressure;BME280_temperature;BME280_humidity;BME280_pressure;Samples;Min_cycle;Max_cycle;Signal;HPM_P1;HPM_P2
2023/05/13 00:01:14;;;;;;;62.95;42.92;;;;;;;;;;5090697;28;20024;-56
2023/05/13 00:03:40;;;;;;;54.45;35.08;;;;;;;;;;5090515;28;20077;-56
2023/05/13 00:06:06;;;;;;;54.92;38.15;;;;;;;;;;5090555;28;20020;-56
2023/05/13 00:08:32;;;;;;;45.60;28.60;;;;;;;;;;5090932;28;20099;-56
2023/05/13 00:10:58;;;;;;;45.33;30.83;;;;;;;;;;5090684;28;20535;-55
2023/05/13 00:13:25;;;;;;;64.57;39.97;;;;;;;;;;5090198;28;20032;-56
2023/05/13 00:15:51;;;;;;;70.57;47.60;;;;;;;;;;5090506;28;20364;-58
2023/05/13 00:18:17;;;;;;;60.17;38.95;;;;;;;;;;5089895;28;20085;-57
2023/05/13 00:20:43;;;;;;;61.30;38.05;;;;;;;;;;5090543;28;20027;-57
2023/05/13 00:23:10;;;;;;;51.65;39.25;;;;;;;;;;5089923;28;20081;-57
2023/05/13 00:25:36;;;;;;;35.55;27.75;;;;;;;;;;5082172;28;20021;-59
2023/05/13 00:28:02;;;;;;;44.55;27.63;;;;;;;;;;5084906;28;20036;-57
2023/05/13 00:30:28;;;;;;;37.83;28.00;;;;;;;;;;5090351;28;20466;-57
2023/05/13 00:32:54;;;;;;;35.97;26.88;;;;;;;;;;5090398;28;20161;-57
2023/05/13 00:35:20;;;;;;;36.03;27.33;;;;;;;;;;5089801;28;20359;-57
2023/05/13 00:37:46;;;;;;;43.60;28.88;;;;;;;;;;5089991;28;20024;-57
2023/05/13 00:40:22;;;;;;;37.20;27.40;;;;;;;;;;5089894;28;20012;-61
2023/05/13 00:42:48;;;;;;;41.67;31.13;;;;;;;;;;5089830;28;20390;-58
2023/05/13 00:45:14;;;;;;;40.08;29.27;;;;;;;;;;5090108;28;20034;-56
2023/05/13 00:47:41;;;;;;;41.38;28.48;;;;;;;;;;5090067;28;20046;-57
2023/05/13 00:50:08;;;;;;;57.22;33.75;;;;;;;;;;5090211;28;20455;-56
2023/05/13 00:52:34;;;;;;;34.17;26.30;;;;;;;;;;5089572;28;20028;-57
2023/05/13 00:55:00;;;;;;;38.00;26.13;;;;;;;;;;5089307;28;20028;-57
2023/05/13 00:57:26;;;;;;;37.63;26.33;;;;;;;;;;5086711;28;20050;-57
2023/05/13 00:59:52;;;;;;;38.83;27.00;;;;;;;;;;5079364;28;20118;-58
2023/05/13 01:02:22;;;;;;;37.70;25.25;;;;;;;;;;5089057;28;20484;-58
2023/05/13 01:04:54;;;;;;;32.30;24.52;;;;;;;;;;5089616;28;20378;-58
2023/05/13 01:07:27;;;;;;;28.52;23.02;;;;;;;;;;5088645;28;20026;-57
2023/05/13 01:10:12;;;;;;;28.58;22.80;;;;;;;;;;5089850;28;20107;-57
2023/05/13 01:12:45;;;;;;;39.85;23.95;;;;;;;;;;5066145;28;20044;-57
2023/05/13 01:15:20;;;;;;;29.70;22.85;;;;;;;;;;5089450;28;20020;-56
2023/05/13 01:17:55;;;;;;;27.50;22.40;;;;;;;;;;5089908;28;20031;-58
2023/05/13 01:20:22;;;;;;;33.88;24.52;;;;;;;;;;5089030;28;20047;-56
2023/05/13 01:22:48;;;;;;;35.15;27.85;;;;;;;;;;5089495;28;20024;-57
2023/05/13 01:25:14;;;;;;;30.08;23.08;;;;;;;;;;5089318;28;20417;-57
2023/05/13 01:27:41;;;;;;;24.85;17.98;;;;;;;;;;5089407;28;20020;-57
2023/05/13 01:30:08;;;;;;;24.38;16.98;;;;;;;;;;5088890;28;20112;-56
2023/05/13 01:32:35;;;;;;;32.75;23.38;;;;;;;;;;5088844;28;20040;-57
2023/05/13 01:35:02;;;;;;;31.55;19.27;;;;;;;;;;5089010;28;20036;-57
2023/05/13 01:37:28;;;;;;;22.00;17.17;;;;;;;;;;5089205;28;20030;-56
2023/05/13 01:39:55;;;;;;;165.80;140.75;;;;;;;;;;5089225;28;20031;-56
2023/05/13 01:42:22;;;;;;;59.10;47.33;;;;;;;;;;5089044;28;20024;-56
2023/05/13 01:44:48;;;;;;;32.03;25.30;;;;;;;;;;5088840;28;20098;-58
2023/05/13 01:47:14;;;;;;;23.80;18.45;;;;;;;;;;5089416;28;20016;-58
2023/05/13 01:49:40;;;;;;;26.80;16.80;;;;;;;;;;5088940;28;20024;-56
2023/05/13 01:52:06;;;;;;;21.70;19.30;;;;;;;;;;5062178;28;20121;-56
2023/05/13 01:54:32;;;;;;;19.48;16.63;;;;;;;;;;5089229;28;20063;-57
2023/05/13 01:56:58;;;;;;;30.00;21.80;;;;;;;;;;5088838;28;20024;-56
2023/05/13 01:59:24;;;;;;;38.63;23.77;;;;;;;;;;5089534;28;20589;-56
2023/05/13 02:01:51;;;;;;;47.55;28.23;;;;;;;;;;5088575;28;20473;-57
2023/05/13 02:04:17;;;;;;;39.42;26.55;;;;;;;;;;5089079;28;20066;-57
2023/05/13 02:06:43;;;;;;;28.98;21.48;;;;;;;;;;5089422;28;20032;-55
2023/05/13 02:09:09;;;;;;;23.45;16.52;;;;;;;;;;5089099;28;20020;-57
2023/05/13 02:11:36;;;;;;;21.42;15.68;;;;;;;;;;5088714;28;20031;-57
2023/05/13 02:14:02;;;;;;;18.35;15.38;;;;;;;;;;5089067;28;20442;-57
2023/05/13 02:16:28;;;;;;;16.63;13.63;;;;;;;;;;5088812;28;20028;-57
2023/05/13 02:18:54;;;;;;;21.42;14.57;;;;;;;;;;5089640;28;20028;-56
2023/05/13 02:21:20;;;;;;;14.82;11.82;;;;;;;;;;5092983;28;20031;-55
2023/05/13 02:23:47;;;;;;;15.25;12.05;;;;;;;;;;5093048;28;20047;-56
2023/05/13 02:26:13;;;;;;;14.15;10.20;;;;;;;;;;5092618;28;20378;-56
2023/05/13 02:28:39;;;;;;;12.55;10.10;;;;;;;;;;5092758;28;20413;-55
2023/05/13 02:31:05;;;;;;;12.82;9.48;;;256.60;2252.80;;;;;;5092975;28;20033;-55
2023/05/13 02:33:31;;;;;;;9.98;8.95;;;256.40;2252.80;;;;;;5092954;28;20032;-56
2023/05/13 02:35:56;;;;;;;10.98;8.45;;;256.30;2252.80;;;;;;5092723;28;20103;-57
2023/05/13 02:38:22;;;;;;;16.33;12.77;;;;;;;;;;5092550;28;20023;-55
2023/05/13 02:40:48;;;;;;;12.88;9.07;;;256.50;2252.80;;;;;;5092009;28;20528;-56
2023/05/13 02:43:14;;;;;;;12.52;8.13;;;256.40;2252.80;;;;;;5092491;28;20075;-55
2023/05/13 02:45:40;;;;;;;10.55;8.90;;;256.40;2252.80;;;;;;5091804;28;20115;-56
2023/05/13 02:48:06;;;;;;;10.50;8.57;;;256.50;2252.80;;;;;;5065808;28;20043;-59
2023/05/13 02:50:32;;;;;;;11.75;7.85;;;256.40;2252.80;;;;;;5092025;28;20031;-59
2023/05/13 02:52:57;;;;;;;12.63;8.77;;;256.40;2252.80;;;;;;5092922;28;20028;-56
2023/05/13 02:55:23;;;;;;;9.45;8.18;;;256.30;2252.80;;;;;;5092507;28;20020;-55
2023/05/13 02:57:49;;;;;;;12.07;8.70;;;256.30;2252.80;;;;;;5092170;28;20020;-55
2023/05/13 03:00:15;;;;;;;11.68;8.73;;;256.40;2252.80;;;;;;5091604;28;20074;-57
2023/05/13 03:02:41;;;;;;;12.75;9.40;;;256.40;2252.80;;;;;;5064917;28;20024;-55
2023/05/13 03:05:07;;;;;;;12.10;8.48;;;256.50;2252.80;;;;;;5091826;28;20105;-56
2023/05/13 03:07:33;;;;;;;12.73;9.85;;;256.60;2252.80;;;;;;5091938;28;20032;-56
2023/05/13 03:09:59;;;;;;;9.75;7.50;;;256.70;2252.80;;;;;;5091824;28;20077;-59
2023/05/13 03:12:25;;;;;;;11.43;8.38;;;256.80;2252.80;;;;;;5091959;28;20032;-55
2023/05/13 03:14:50;;;;;;;12.77;8.23;;;256.90;2252.80;;;;;;5091429;28;20028;-56
2023/05/13 03:17:16;;;;;;;27.23;24.33;;;256.90;2252.80;;;;;;5064781;28;20028;-55
2023/05/13 03:19:42;;;;;;;16.75;11.93;;;256.90;2252.80;;;;;;5091525;28;20480;-56
2023/05/13 03:22:08;;;;;;;18.73;15.10;;;256.90;2252.80;;;;;;5091373;28;20024;-55
2023/05/13 03:24:33;;;;;;;17.38;11.95;;;256.90;2252.80;;;;;;5073286;28;20039;-57
2023/05/13 03:27:00;;;;;;;17.95;11.40;;;256.90;2252.80;;;;;;5091402;28;20381;-56
2023/05/13 03:29:26;;;;;;;19.50;12.73;;;256.90;2252.80;;;;;;5091969;28;20031;-57
2023/05/13 03:31:52;;;;;;;18.35;12.45;;;256.90;2252.80;;;;;;5090306;28;20062;-56
2023/05/13 03:34:18;;;;;;;16.05;11.77;;;281.60;2278.40;;;;;;5091308;28;20020;-56
2023/05/13 03:36:44;;;;;;;13.23;9.68;;;281.70;2278.40;;;;;;5091570;28;20028;-56
2023/05/13 03:39:09;;;;;;;12.07;9.60;;;281.80;2278.40;;;;;;5091221;28;20073;-57
2023/05/13 03:41:35;;;;;;;15.13;12.05;;;281.90;2278.40;;;;;;5073254;28;20055;-55
2023/05/13 03:44:01;;;;;;;15.82;11.18;;;281.90;2278.40;;;;;;5090851;28;20151;-56
2023/05/13 03:46:27;;;;;;;13.45;10.32;;;282.00;2278.40;;;;;;5091579;28;20020;-57
2023/05/13 03:48:57;;;;;;;13.32;10.23;;;282.00;2278.40;;;;;;5091447;28;20076;-55
2023/05/13 03:51:22;;;;;;;12.98;10.00;;;282.20;2278.40;;;;;;5089155;28;20031;-59
2023/05/13 03:53:48;;;;;;;12.32;9.65;;;282.30;2278.40;;;;;;5090954;28;20020;-55
2023/05/13 03:56:14;;;;;;;12.43;9.15;;;282.30;2278.40;;;;;;5091404;28;20462;-56
2023/05/13 03:58:40;;;;;;;9.10;7.47;;;282.40;2278.40;;;;;;5090950;28;20150;-58
2023/05/13 04:01:06;;;;;;;11.43;7.95;;;282.50;2278.40;;;;;;5090956;28;20017;-56
2023/05/13 04:03:33;;;;;;;9.05;8.10;;;282.50;2278.40;;;;;;5091053;28;20028;-56
2023/05/13 04:05:59;;;;;;;11.18;8.52;;;282.40;2278.40;;;;;;5091112;28;20020;-55
2023/05/13 04:08:25;;;;;;;10.45;8.52;;;282.50;2278.40;;;;;;5090902;28;20031;-56
2023/05/13 04:10:51;;;;;;;9.80;7.97;;;282.50;2278.40;;;;;;5090663;28;20107;-56
2023/05/13 04:13:17;;;;;;;9.07;7.55;;;307.20;2304.00;;;;;;5090360;28;20097;-55
2023/05/13 04:15:43;;;;;;;9.98;8.10;;;307.30;2304.00;;;;;;5090601;28;20039;-55
2023/05/13 04:18:09;;;;;;;11.07;7.47;;;307.40;2304.00;;;;;;5090526;28;20028;-55
2023/05/13 04:20:38;;;;;;;10.52;9.05;;;307.40;2304.00;;;;;;5091106;28;20027;-61
2023/05/13 04:23:04;;;;;;;12.75;11.43;;;307.40;2304.00;;;;;;5090061;28;20020;-55
2023/05/13 04:25:30;;;;;;;9.95;7.72;;;307.60;2304.00;;;;;;5090583;28;20046;-60
2023/05/13 04:27:56;;;;;;;16.27;14.60;;;;;;;;;;5090849;28;20024;-56
2023/05/13 04:30:22;;;;;;;9.40;8.15;;;;;;;;;;5090269;28;20028;-55
2023/05/13 04:32:48;;;;;;;10.52;8.38;;;332.90;2329.60;;;;;;5089967;28;20390;-55
2023/05/13 04:35:13;;;;;;;11.30;7.78;;;332.80;2329.60;;;;;;5072021;28;20028;-56
2023/05/13 04:37:39;;;;;;;11.00;9.52;;;308.10;2304.00;;;;;;5089423;28;20466;-57
2023/05/13 04:40:07;;;;;;;11.82;9.18;;;;;;;;;;5090286;28;20058;-55
2023/05/13 04:42:33;;;;;;;10.25;8.55;;;;;;;;;;5089944;28;20063;-55
2023/05/13 04:44:58;;;;;;;12.38;8.90;;;333.60;2329.60;;;;;;5090146;28;20039;-57
2023/05/13 04:47:24;;;;;;;9.77;7.65;;;384.30;2329.60;;;;;;5089445;28;20021;-56
2023/05/13 04:49:50;;;;;;;9.27;6.75;;;;;;;;;;5089936;28;20114;-56
2023/05/13 04:52:16;;;;;;;8.75;7.45;;;538.50;2099.20;;;;;;5089527;28;20028;-61
2023/05/13 04:54:41;;;;;;;8.52;7.15;;;640.70;1740.80;;;;;;5089896;28;20024;-56
2023/05/13 04:57:07;;;;;;;7.10;6.40;;;691.60;1612.80;;;;;;5089912;28;20035;-56
2023/05/13 04:59:34;;;;;;;13.18;7.25;;;692.10;1561.60;;;;;;5090333;28;20027;-56
2023/05/13 05:02:00;;;;;;;7.32;6.63;;;717.70;1510.40;;;;;;5089373;28;20028;-59
2023/05/13 05:04:26;;;;;;;6.32;5.43;;;768.40;1433.60;;;;;;5089905;28;20454;-56
2023/05/13 05:06:52;;;;;;;7.55;5.78;;;768.60;1382.40;;;;;;5089697;28;20040;-56
2023/05/13 05:09:18;;;;;;;6.15;5.55;;;768.60;1356.80;;;;;;5089639;28;20131;-56
2023/05/13 05:11:44;;;;;;;6.90;5.80;;;743.00;1459.20;;;;;;5075023;28;20040;-56
2023/05/13 05:14:10;;;;;;;5.28;4.70;;;;;;;;;;5077754;28;20445;-56
2023/05/13 05:16:36;;;;;;;8.57;5.88;;;;;;;;;;5090065;28;20024;-61
2023/05/13 05:19:02;;;;;;;7.60;5.32;;;793.70;1408.00;;;;;;5089723;28;20024;-58
2023/05/13 05:21:27;;;;;;;7.78;6.03;;;691.30;1510.40;;;;;;5089810;28;20099;-56
2023/05/13 05:23:53;;;;;;;5.43;4.90;;;666.20;1587.20;;;;;;5075529;28;20557;-57
2023/05/13 05:26:19;;;;;;;10.57;5.68;;;666.20;1536.00;;;;;;5069261;28;20374;-57
2023/05/13 05:28:45;;;;;;;8.32;5.38;;;614.70;1664.00;;;;;;5083230;28;20032;-57
2023/05/13 05:31:11;;;;;;;6.00;5.18;;;588.80;1766.40;;;;;;5070321;28;20024;-56
2023/05/13 05:33:39;;;;;;;6.78;6.10;;;691.50;1561.60;;;;;;5089484;28;20052;-64
2023/05/13 05:36:05;;;;;;;6.65;5.25;;;793.60;1382.40;;;;;;5081817;28;20039;-56
2023/05/13 05:38:31;;;;;;;11.10;6.03;;;717.20;1459.20;;;;;;5068820;28;20024;-57
2023/05/13 05:40:56;;;;;;;7.20;6.50;;;691.60;1510.40;;;;;;5069414;28;20035;-58
2023/05/13 05:43:22;;;;;;;7.53;6.82;;;768.80;1382.40;;;;;;5068584;28;20080;-55
2023/05/13 05:45:48;;;;;;;8.25;6.22;;;742.90;1433.60;;;;;;5069289;28;20063;-55
2023/05/13 05:48:13;;;;;;;7.82;6.20;;;768.20;1408.00;;;;;;5070770;28;20108;-56
2023/05/13 05:50:40;;;;;;;7.78;7.07;;;;;;;;;;5089261;28;20031;-56
2023/05/13 05:53:06;;;;;;;10.60;8.15;;;794.10;1331.20;;;;;;5080485;28;20043;-56
2023/05/13 05:55:32;;;;;;;12.70;9.38;;;870.50;1228.80;;;;;;5075844;28;20033;-56
2023/05/13 05:58:02;;;;;;;10.93;9.93;;;870.90;1203.20;;;;;;5082197;28;20491;-58
2023/05/13 06:00:28;;;;;;;12.85;11.65;;;922.40;1152.00;;;;;;5088950;28;20012;-57
2023/05/13 06:02:55;;;;;;;13.85;11.80;;;896.80;1152.00;;;;;;5085608;28;20160;-60
2023/05/13 06:05:22;;;;;;;14.27;12.23;;;844.90;1254.40;;;;;;5073934;28;20025;-62
2023/05/13 06:07:48;;;;;;;11.95;9.98;;;;;;;;;;5078789;28;20122;-62
2023/05/13 06:10:14;;;;;;;13.32;11.98;;;;;;;;;;5088478;28;20036;-56
2023/05/13 06:12:40;;;;;;;12.25;10.05;;;;;;;;;;5088538;28;20032;-62
2023/05/13 06:15:09;;;;;;;16.15;14.65;;;;;;;;;;5073689;28;20037;-56
2023/05/13 06:17:36;;;;;;;14.43;12.75;;;768.20;1331.20;;;;;;5070030;28;20033;-59
2023/05/13 06:20:02;;;;;;;15.75;14.07;;;870.90;1203.20;;;;;;5069049;28;20375;-56
2023/05/13 06:22:28;;;;;;;16.85;15.13;;;922.40;1126.40;;;;;;5068629;28;20420;-57
2023/05/13 06:24:54;;;;;;;20.58;15.82;;;947.70;1075.20;;;;;;5083023;28;20107;-62
2023/05/13 06:27:19;;;;;;;19.67;15.77;;;973.50;1049.60;;;;;;5088876;28;20455;-57
2023/05/13 06:29:45;;;;;;;18.77;15.75;;;973.60;1049.60;;;;;;5085958;28;20048;-61
2023/05/13 06:32:11;;;;;;;18.42;16.70;;;999.30;1049.60;;;;;;5067924;28;20043;-57
2023/05/13 06:34:38;;;;;;;23.45;17.98;;;1024.10;1024.00;;;;;;5068450;28;20089;-57
2023/05/13 06:37:04;;;;;;;20.33;18.33;;;998.60;1049.60;;;;;;5088855;28;20043;-58
2023/05/13 06:39:30;;;;;;;19.17;17.50;;;1024.60;998.40;;;;;;5080547;28;20483;-57
2023/05/13 06:41:56;;;;;;;19.63;17.77;;;1024.40;998.40;;;;;;5069802;28;20020;-59
2023/05/13 06:44:22;;;;;;;21.30;18.75;;;1049.60;998.40;;;;;;5088360;28;20044;-56
2023/05/13 06:46:47;;;;;;;21.85;19.52;;;1050.50;972.80;;;;;;5069546;28;20470;-56
2023/05/13 06:49:13;;;;;;;22.48;19.15;;;1075.40;972.80;;;;;;5068199;28;20459;-58
2023/05/13 06:51:39;;;;;;;19.70;17.67;;;1050.10;972.80;;;;;;5068189;28;20025;-62
2023/05/13 06:54:04;;;;;;;20.25;18.25;;;1100.80;972.80;;;;;;5071450;28;20417;-59
2023/05/13 06:56:30;;;;;;;21.67;19.02;;;1100.90;972.80;;;;;;5068510;28;20025;-56
2023/05/13 06:58:56;;;;;;;19.20;17.50;;;1126.60;947.20;;;;;;5080449;28;20046;-57
2023/05/13 07:01:22;;;;;;;24.40;18.00;;;;;;;;;;5077595;28;20016;-60
2023/05/13 07:03:48;;;;;;;20.83;17.92;;;;;;;;;;5085792;28;20024;-58
2023/05/13 07:06:14;;;;;;;20.45;18.52;;;;;;;;;;5080320;28;20028;-56
2023/05/13 07:08:40;;;;;;;18.98;17.02;;;;;;;;;;5089163;28;20035;-65
2023/05/13 07:11:06;;;;;;;17.23;15.50;;;1075.30;972.80;;;;;;5071021;28;20028;-57
2023/05/13 07:13:33;;;;;;;20.27;18.27;;;1024.40;972.80;;;;;;5071130;28;20436;-57
2023/05/13 07:16:01;;;;;;;17.50;15.88;;;1049.80;998.40;;;;;;5071179;28;20109;-57
2023/05/13 07:18:27;;;;;;;17.92;15.27;;;1075.70;947.20;;;;;;5071466;28;20028;-62
2023/05/13 07:20:55;;;;;;;17.48;15.13;;;1075.90;972.80;;;;;;5069790;28;20027;-57
2023/05/13 07:23:21;;;;;;;16.77;12.82;;;948.10;1024.00;;;;;;5089647;28;20024;-59
2023/05/13 07:25:51;;;;;;;14.88;12.35;;;870.70;1152.00;;;;;;5059498;28;20039;-58
2023/05/13 07:28:20;;;;;;;17.02;12.18;;;794.40;1254.40;;;;;;5070070;28;20478;-57
2023/05/13 07:30:46;;;;;;;14.75;10.77;;;;;;;;;;5070158;28;20052;-58
2023/05/13 07:33:12;;;;;;;21.10;11.32;;;;;;;;;;5071458;28;20489;-57
2023/05/13 07:35:38;;;;;;;13.02;11.55;;;743.10;1331.20;;;;;;5075465;28;20482;-57
2023/05/13 07:38:03;;;;;;;18.73;10.10;;;691.60;1433.60;;;;;;5089910;28;20038;-57
2023/05/13 07:40:29;;;;;;;13.50;10.73;;;666.30;1484.80;;;;;;5081145;28;20101;-58
2023/05/13 07:42:55;;;;;;;11.60;9.20;;;666.50;1484.80;;;;;;5074005;28;20139;-57
2023/05/13 07:45:20;;;;;;;12.57;9.75;;;691.20;1484.80;;;;;;5069091;28;20029;-58
2023/05/13 07:47:46;;;;;;;16.73;9.95;;;717.60;1433.60;;;;;;5088097;28;20071;-57
2023/05/13 07:50:12;;;;;;;12.90;9.35;;;;;;;;;;5084137;28;20020;-57
2023/05/13 07:52:39;;;;;;;10.32;9.25;;;;;;;;;;5068046;28;20474;-57
2023/05/13 07:55:05;;;;;;;16.52;8.95;;;;;;;;;;5080729;28;20064;-60
2023/05/13 07:57:31;;;;;;;12.07;10.43;;;;;;;;;;5069376;28;20497;-60
2023/05/13 07:59:57;;;;;;;12.18;10.13;;;794.40;1305.60;;;;;;5069013;28;20016;-57
2023/05/13 08:02:23;;;;;;;12.32;9.77;;;845.60;1254.40;;;;;;5070933;28;20032;-58
2023/05/13 08:04:49;;;;;;;12.00;8.35;;;922.00;1152.00;;;;;;5084676;28;20107;-58
2023/05/13 08:07:14;;;;;;;12.48;10.32;;;845.20;1254.40;;;;;;5087020;28;20107;-58
2023/05/13 08:09:40;;;;;;;11.63;9.68;;;768.70;1331.20;;;;;;5079943;28;20021;-57
2023/05/13 08:12:06;;;;;;;13.88;8.55;;;794.40;1331.20;;;;;;5088937;28;20035;-58
2023/05/13 08:14:32;;;;;;;12.15;7.35;;;819.20;1280.00;;;;;;5089278;28;20028;-57
2023/05/13 08:16:58;;;;;;;10.77;8.15;;;768.60;1305.60;;;;;;5080784;28;20102;-61
2023/05/13 08:19:23;;;;;;;11.80;7.95;;;743.30;1331.20;;;;;;5083064;28;20024;-64
2023/05/13 08:21:49;;;;;;;10.95;7.20;;;768.10;1382.40;;;;;;5089353;28;20066;-64
2023/05/13 08:24:15;;;;;;;11.38;7.68;;;717.50;1408.00;;;;;;5089249;28;20115;-67
2023/05/13 08:26:40;;;;;;;13.80;9.80;;;717.20;1433.60;;;;;;5087476;28;20531;-62
2023/05/13 08:29:07;;;;;;;9.82;6.07;;;716.90;1459.20;;;;;;5073016;28;20040;-62
2023/05/13 08:31:33;;;;;;;8.77;5.93;;;;;;;;;;5068686;28;20075;-61
2023/05/13 08:33:59;;;;;;;12.15;10.95;;;716.90;1459.20;;;;;;5084063;28;20032;-61
2023/05/13 08:36:25;;;;;;;6.72;5.03;;;666.30;1510.40;;;;;;5079822;28;20016;-68
2023/05/13 08:38:51;;;;;;;16.05;5.80;;;665.90;1536.00;;;;;;5068261;28;20077;-63
2023/05/13 08:41:17;;;;;;;8.55;6.10;;;640.70;1536.00;;;;;;5077782;28;20103;-64
2023/05/13 08:43:43;;;;;;;8.00;5.53;;;665.80;1561.60;;;;;;5088053;28;20140;-65
2023/05/13 08:46:10;;;;;;;13.02;6.88;;;666.00;1536.00;;;;;;5088314;28;20027;-61
2023/05/13 08:48:37;;;;;;;9.77;6.28;;;691.20;1536.00;;;;;;5075411;28;20423;-65
2023/05/13 08:51:03;;;;;;;21.92;11.23;;;666.00;1536.00;;;;;;5068589;28;20020;-65
2023/05/13 08:53:30;;;;;;;10.75;5.45;;;666.10;1587.20;;;;;;5080937;28;20040;-64
2023/05/13 08:55:56;;;;;;;16.73;7.13;;;665.70;1587.20;;;;;;5074957;28;20066;-63
2023/05/13 08:58:23;;;;;;;19.35;7.55;;;640.90;1561.60;;;;;;5088497;28;20169;-63
2023/05/13 09:00:50;;;;;;;8.50;6.65;;;640.10;1587.20;;;;;;5087532;28;20043;-62
2023/05/13 09:03:17;;;;;;;8.45;6.15;;;615.30;1612.80;;;;;;5068389;28;20033;-61
2023/05/13 09:05:44;;;;;;;12.95;8.15;;;615.30;1638.40;;;;;;5068102;28;20025;-66
2023/05/13 09:08:10;;;;;;;7.40;5.05;;;640.00;1638.40;;;;;;5067895;28;20494;-65
2023/05/13 09:10:36;;;;;;;6.28;4.70;;;640.20;1612.80;;;;;;5086595;28;20028;-66
2023/05/13 09:13:02;;;;;;;7.93;4.72;;;640.20;1612.80;;;;;;5087855;28;20046;-66
2023/05/13 09:15:29;;;;;;;7.22;4.18;;;640.10;1612.80;;;;;;5087770;28;20028;-63
2023/05/13 09:18:02;;;;;;;6.60;4.88;;;615.00;1638.40;;;;;;5088228;28;20081;-62
2023/05/13 09:20:28;;;;;;;7.15;4.55;;;615.00;1638.40;;;;;;5087784;28;20023;-62
2023/05/13 09:22:57;;;;;;;9.85;4.28;;;614.90;1638.40;;;;;;5073400;28;20036;-62
2023/05/13 09:25:23;;;;;;;7.22;4.30;;;615.20;1638.40;;;;;;5067516;28;20020;-62
2023/05/13 09:27:57;;;;;;;7.75;4.03;;;640.00;1638.40;;;;;;5067152;28;20032;-62
2023/05/13 09:30:24;;;;;;;8.43;4.70;;;615.20;1587.20;;;;;;5067472;28;20463;-66
2023/05/13 09:33:18;;;;;;;6.75;4.07;;;615.20;1612.80;;;;;;5066975;28;20037;-66
2023/05/13 09:35:53;;;;;;;6.03;3.60;;;640.00;1587.20;;;;;;5060333;28;20052;-63
2023/05/13 09:38:20;;;;;;;5.88;3.95;;;615.20;1612.80;;;;;;5067397;28;20016;-66
2023/05/13 09:40:53;;;;;;;6.93;4.63;;;615.30;1612.80;;;;;;5057120;28;20383;-68
2023/05/13 09:43:26;;;;;;;6.33;3.87;;;615.00;1612.80;;;;;;5070322;28;20051;-68
2023/05/13 09:45:59;;;;;;;5.25;3.72;;;615.20;1612.80;;;;;;5063727;28;20024;-70
2023/05/13 09:48:27;;;;;;;8.98;4.70;;;614.90;1638.40;;;;;;5067971;28;20077;-66
2023/05/13 09:50:55;;;;;;;7.30;4.65;;;614.80;1638.40;;;;;;5063725;28;20030;-64
2023/05/13 09:53:20;;;;;;;7.28;4.55;;;614.80;1638.40;;;;;;5062057;28;20055;-68
2023/05/13 09:55:47;;;;;;;5.35;4.30;;;614.70;1612.80;;;;;;5055994;28;20025;-70
2023/05/13 09:58:13;;;;;;;5.50;3.97;;;614.70;1612.80;;;;;;5052366;28;20028;-68
2023/05/13 10:00:40;;;;;;;10.48;4.57;;;614.60;1664.00;;;;;;5056477;28;20032;-64
2023/05/13 10:03:06;;;;;;;12.20;4.97;;;589.70;1664.00;;;;;;5057678;28;20079;-62
2023/05/13 10:05:33;;;;;;;7.45;4.20;;;589.50;1689.60;;;;;;5062280;28;20534;-65
2023/05/13 10:08:00;;;;;;;6.00;3.85;;;589.50;1715.20;;;;;;5058239;28;20037;-62
2023/05/13 10:10:31;;;;;;;7.93;5.45;;;589.50;1689.60;;;;;;5057424;28;20024;-61
2023/05/13 10:13:05;;;;;;;11.85;4.93;;;589.30;1715.20;;;;;;5061734;28;20040;-62
2023/05/13 10:15:32;;;;;;;8.30;4.63;;;589.70;1689.60;;;;;;5068069;28;20035;-65
2023/05/13 10:17:59;;;;;;;7.88;4.70;;;589.50;1715.20;;;;;;5059023;28;20033;-62
2023/05/13 10:20:25;;;;;;;14.65;5.88;;;589.70;1740.80;;;;;;5062960;28;20115;-64
2023/05/13 10:22:51;;;;;;;7.13;5.60;;;589.20;1766.40;;;;;;5058842;28;20036;-62
2023/05/13 10:25:18;;;;;;;11.75;5.43;;;589.60;1766.40;;;;;;5053980;28;20021;-64
2023/05/13 10:27:45;;;;;;;10.13;3.92;;;614.50;1715.20;;;;;;5058832;28;20495;-64
2023/05/13 10:30:14;;;;;;;7.85;4.28;;;614.40;1689.60;;;;;;5054833;28;20033;-65
2023/05/13 10:32:40;;;;;;;7.78;4.82;;;614.50;1638.40;;;;;;5055422;28;20044;-64
2023/05/13 10:35:15;;;;;;;9.73;5.30;;;589.50;1689.60;;;;;;5058649;28;20025;-61
2023/05/13 10:37:53;;;;;;;4.97;3.97;;;589.60;1689.60;;;;;;5060652;28;20482;-64
2023/05/13 10:40:37;;;;;;;10.38;4.75;;;589.70;1664.00;;;;;;5055551;28;20045;-64
2023/05/13 10:43:25;;;;;;;7.88;4.38;;;614.50;1664.00;;;;;;5057927;28;20037;-61
2023/05/13 10:45:56;;;;;;;6.75;3.90;;;614.60;1638.40;;;;;;5054620;28;20063;-61
2023/05/13 10:48:22;;;;;;;8.95;5.65;;;589.50;1664.00;;;;;;5059191;28;20597;-61
2023/05/13 10:50:56;;;;;;;11.15;5.75;;;589.70;1715.20;;;;;;5056297;28;20376;-62
2023/05/13 10:53:30;;;;;;;9.60;4.80;;;589.20;1740.80;;;;;;5059888;28;20039;-66
2023/05/13 10:55:58;;;;;;;9.88;5.60;;;589.40;1817.60;;;;;;5056980;28;20510;-65
2023/05/13 10:58:31;;;;;;;11.57;6.95;;;589.20;1817.60;;;;;;5055332;28;20091;-66
2023/05/13 11:01:24;;;;;;;12.88;6.13;;;588.80;1817.60;;;;;;5066834;28;20040;-64
2023/05/13 11:03:55;;;;;;;9.05;5.53;;;589.20;1894.40;;;;;;5058094;28;20601;-68
2023/05/13 11:06:22;;;;;;;12.93;6.63;;;589.00;1894.40;;;;;;5054541;28;20025;-65
2023/05/13 11:08:51;;;;;;;7.07;5.07;;;589.00;1894.40;;;;;;5072847;28;20042;-62
2023/05/13 11:11:21;;;;;;;8.25;4.95;;;563.90;1920.00;;;;;;5062054;28;20539;-68
2023/05/13 11:14:10;;;;;;;6.18;4.38;;;563.70;1920.00;;;;;;5066759;28;20524;-66
2023/05/13 11:16:36;;;;;;;8.50;4.95;;;563.80;1945.60;;;;;;5063740;28;20114;-63
2023/05/13 11:19:07;;;;;;;11.80;5.40;;;564.00;1894.40;;;;;;5062358;28;20032;-67
2023/05/13 11:21:39;;;;;;;15.75;6.55;;;564.10;1945.60;;;;;;5063818;28;20086;-69
2023/05/13 11:24:06;;;;;;;15.40;7.40;;;588.80;1920.00;;;;;;5071780;28;20029;-68
2023/05/13 11:26:47;;;;;;;13.05;7.50;;;588.80;1996.80;;;;;;5070816;28;20382;-68
2023/05/13 11:29:13;;;;;;;11.45;7.07;;;564.10;2022.40;;;;;;5062633;28;20035;-68
2023/05/13 11:31:59;;;;;;;11.10;8.52;;;588.80;2150.40;;;;;;5068174;28;20482;-68
2023/05/13 11:34:25;;;;;;;11.70;5.65;;;564.10;1971.20;;;;;;5059784;28;20040;-67
2023/05/13 11:37:04;;;;;;;9.07;6.13;;;564.00;1945.60;;;;;;5063053;28;20382;-66
2023/05/13 11:39:31;;;;;;;17.98;8.27;;;563.90;1920.00;;;;;;5080389;28;20487;-67
2023/05/13 11:42:02;;;;;;;30.83;12.02;;;564.10;1945.60;;;;;;5080795;28;20390;-66
2023/05/13 11:44:28;;;;;;;15.80;8.80;;;564.10;2073.60;;;;;;5071319;28;20063;-62
2023/05/13 11:46:59;;;;;;;11.55;5.00;;;563.80;2099.20;;;;;;5061958;28;20033;-69
2023/05/13 11:49:47;;;;;;;8.52;4.93;;;563.70;1945.60;;;;;;5066856;28;20017;-64
2023/05/13 11:52:15;;;;;;;4.95;3.60;;;538.40;1920.00;;;;;;5058899;28;20366;-69
2023/05/13 11:54:52;;;;;;;7.70;6.00;;;538.00;1945.60;;;;;;5054509;28;20028;-69
2023/05/13 11:57:24;;;;;;;21.85;10.57;;;538.10;2048.00;;;;;;5055035;28;20079;-66
2023/05/13 11:59:55;;;;;;;14.15;11.80;;;563.30;2022.40;;;;;;5070483;28;20024;-61
2023/05/13 12:02:29;;;;;;;51.35;31.25;;;564.00;2022.40;;;;;;5071569;28;20106;-66
2023/05/13 12:05:00;;;;;;;13.25;7.18;;;564.10;1996.80;;;;;;5067127;28;20016;-62
2023/05/13 12:07:26;;;;;;;8.60;5.40;;;588.80;1971.20;;;;;;5074574;28;20145;-63
2023/05/13 12:09:54;;;;;;;13.82;5.53;;;589.60;1920.00;;;;;;5057420;28;20021;-65
2023/05/13 12:12:20;;;;;;;10.90;6.30;;;614.40;1868.80;;;;;;5066604;28;20040;-64
2023/05/13 12:14:49;;;;;;;10.48;5.07;;;615.10;1843.20;;;;;;5067960;28;20025;-63
2023/05/13 12:17:16;;;;;;;12.02;4.85;;;640.00;1792.00;;;;;;5063245;28;20111;-61
2023/05/13 12:20:10;;;;;;;10.32;5.20;;;614.50;1817.60;;;;;;5040243;28;20090;-64
2023/05/13 12:22:57;;;;;;;15.48;6.22;;;614.50;1817.60;;;;;;5058342;28;20479;-64
2023/05/13 12:25:35;;;;;;;8.70;6.28;;;614.60;1817.60;;;;;;5064007;28;20020;-61
2023/05/13 12:28:15;;;;;;;10.18;5.70;;;589.60;1843.20;;;;;;5064448;28;20059;-69
2023/05/13 12:31:02;;;;;;;9.48;6.35;;;589.70;1843.20;;;;;;5080474;28;20032;-63
2023/05/13 12:33:33;;;;;;;11.70;7.35;;;614.40;1843.20;;;;;;5073319;28;20674;-65
2023/05/13 12:36:18;;;;;;;9.85;5.85;;;614.40;1817.60;;;;;;5063788;28;20060;-65
2023/05/13 12:38:57;;;;;;;6.78;4.78;;;588.90;1868.80;;;;;;5070090;28;20028;-62
2023/05/13 12:41:25;;;;;;;15.90;9.05;;;564.10;1920.00;;;;;;5054210;28;20037;-71
2023/05/13 12:43:55;;;;;;;15.38;8.18;;;563.50;1894.40;;;;;;5061665;28;20075;-68